CheckWX is a tool to help pilots better visualize weather data.  It is not intended as a substitute for an official pre-flight weather briefing.

18:12:22 UTC

KITR METAR
Kit Carson County Airport
Burlington, Colorado, USA
Current

19 mins ago

KITR 171753Z AUTO 04011KT 10SM OVC014 M05/M09 A2994 RMK AO2 SLP173 I6000 T10501089 11044 21128 53020
Observed
Feb-17 @ 17:53 UTC
Wind
  • 040° at 11 KTS
Visibility
10 SM
Flight Rules
MVFR
Cloud Levels
  • Overcast at 1,400' AGL
Temperature
-5°C / 23°F
Dewpoint
-9°C / 16°F
Humidity
74%
Altimeter
29.94" Hg
Pressure
1017.3 hPa
Previous

1 hour ago

KITR 171653Z AUTO 01011KT 10SM OVC011 M04/M08 A2991 RMK AO2 SLP158 T10441078
Observed
Feb-17 @ 16:53 UTC
Wind
  • 010° at 11 KTS
Visibility
10 SM
Flight Rules
MVFR
Cloud Levels
  • Overcast at 1,100' AGL
Temperature
-4°C / 25°F
Dewpoint
-8°C / 18°F
Humidity
74%
Altimeter
29.91" Hg
Pressure
1015.8 hPa
Previous

2 hours ago

KITR 171623Z AUTO 35009KT 10SM BKN011 BKN019 M05/M08 A2989 RMK AO2 T10501078
Observed
Feb-17 @ 16:23 UTC
Wind
  • 350° at 9 KTS
Visibility
10 SM
Flight Rules
MVFR
Cloud Levels
  • Broken at 1,100' AGL
  • Broken at 1,900' AGL
Temperature
-5°C / 23°F
Dewpoint
-8°C / 18°F
Humidity
80%
Altimeter
29.89" Hg
Pressure
1012.22 hPa